Time;durP1;ratioP1;P1;durP2;ratioP2;P2;SDS_P1;SDS_P2;PMS_P1;PMS_P2;Temp;Humidity;BMP_temperature;BMP_pressure;BME280_temperature;BME280_humidity;BME280_pressure;Samples;Min_cycle;Max_cycle;Signal;HPM_P1;HPM_P2
2022/09/15 00:01:02;;;;;;;7.53;3.27;;;;;;;;;;5074441;28;20451;-62
2022/09/15 00:03:28;;;;;;;3.97;2.80;;;;;;;;;;5074464;28;20458;-62
2022/09/15 00:05:57;;;;;;;4.00;3.20;;;;;;;;;;5074369;28;20877;-62
2022/09/15 00:08:24;;;;;;;6.60;3.50;;;;;;;;;;5074527;28;20529;-62
2022/09/15 00:10:52;;;;;;;3.33;3.03;;;;;;;;;;5074465;28;20497;-62
2022/09/15 00:13:19;;;;;;;6.17;2.93;;;;;;;;;;5074245;28;20471;-62
2022/09/15 00:15:46;;;;;;;9.20;3.50;;;;;;;;;;5074283;28;20454;-61
2022/09/15 00:18:14;;;;;;;7.80;2.90;;;;;;;;;;5074585;28;20448;-62
2022/09/15 00:20:42;;;;;;;4.83;2.70;;;;;;;;;;5074298;28;20938;-62
2022/09/15 00:23:10;;;;;;;7.53;3.33;;;;;;;;;;5074190;28;20534;-62
2022/09/15 00:25:42;;;;;;;7.10;3.67;;;;;;;;;;5074122;28;20471;-62
2022/09/15 00:28:08;;;;;;;9.67;3.60;;;;;;;;;;5074043;28;20456;-62
2022/09/15 00:30:35;;;;;;;3.17;2.70;;;;;;;;;;5073889;28;20534;-62
2022/09/15 00:33:02;;;;;;;7.63;3.20;;;;;;;;;;5073759;28;20451;-62
2022/09/15 00:35:29;;;;;;;9.33;3.37;;;;;;;;;;5072804;28;20452;-62
2022/09/15 00:37:56;;;;;;;5.17;3.57;;;;;;;;;;5074222;28;20451;-62
2022/09/15 00:40:26;;;;;;;5.70;2.77;;;;;;;;;;5074010;28;20534;-62
2022/09/15 00:42:53;;;;;;;6.27;3.30;;;;;;;;;;5073702;28;20451;-62
2022/09/15 00:45:20;;;;;;;7.33;3.20;;;;;;;;;;5073608;28;20502;-62
2022/09/15 00:47:47;;;;;;;5.53;2.90;;;;;;;;;;5073534;28;20541;-62
2022/09/15 00:50:15;;;;;;;4.80;3.50;;;;;;;;;;5073660;28;20447;-62
2022/09/15 00:52:44;;;;;;;3.73;3.20;;;;;;;;;;5073636;28;20451;-62
2022/09/15 00:55:12;;;;;;;6.27;3.00;;;;;;;;;;5073463;28;20497;-62
2022/09/15 00:57:42;;;;;;;7.13;3.20;;;;;;;;;;5073288;28;20953;-62
2022/09/15 01:00:11;;;;;;;6.20;3.87;;;;;;;;;;5073190;28;20521;-62
2022/09/15 01:02:39;;;;;;;3.77;3.27;;;;;;;;;;5073433;28;20886;-62
2022/09/15 01:05:09;;;;;;;8.10;3.40;;;;;;;;;;5073417;28;20447;-62
2022/09/15 01:07:38;;;;;;;3.70;3.40;;;;;;;;;;5073325;28;20852;-62
2022/09/15 01:10:06;;;;;;;5.07;3.30;;;;;;;;;;5073136;28;20546;-62
2022/09/15 01:12:34;;;;;;;6.50;3.37;;;;;;;;;;5073219;28;20465;-62
2022/09/15 01:15:02;;;;;;;6.30;3.57;;;;;;;;;;5073234;28;20487;-62
2022/09/15 01:17:34;;;;;;;5.77;4.27;;;;;;;;;;5073228;28;20892;-62
2022/09/15 01:20:24;;;;;;;4.90;3.17;;;;;;;;;;5073357;28;20451;-62
2022/09/15 01:22:57;;;;;;;4.10;3.30;;;;;;;;;;5072948;28;20458;-62
2022/09/15 01:25:32;;;;;;;7.50;3.60;;;;;;;;;;5073500;28;20451;-62
2022/09/15 01:28:14;;;;;;;5.40;3.23;;;;;;;;;;5073395;28;20443;-62
2022/09/15 01:30:46;;;;;;;6.83;3.33;;;;;;;;;;5073003;28;20866;-62
2022/09/15 01:33:19;;;;;;;5.07;3.37;;;;;;;;;;5072915;28;20439;-62
2022/09/15 01:35:52;;;;;;;6.20;3.40;;;;;;;;;;5073098;28;20566;-63
2022/09/15 01:38:23;;;;;;;12.20;3.97;;;;;;;;;;5073085;28;20962;-62
2022/09/15 01:40:52;;;;;;;6.87;3.80;;;;;;;;;;5072835;28;20462;-62
2022/09/15 01:43:21;;;;;;;6.90;3.87;;;;;;;;;;5073128;28;20447;-62
2022/09/15 01:45:50;;;;;;;9.17;4.33;;;;;;;;;;5072620;28;20447;-62
2022/09/15 01:48:18;;;;;;;6.43;3.83;;;;;;;;;;5072832;28;20475;-63
2022/09/15 01:50:47;;;;;;;6.43;3.77;;;;;;;;;;5073112;28;20451;-62
2022/09/15 01:53:17;;;;;;;3.97;3.57;;;;;;;;;;5072916;28;20454;-62
2022/09/15 01:55:47;;;;;;;7.23;3.87;;;;;;;;;;5072853;28;20546;-62
2022/09/15 01:58:14;;;;;;;7.97;3.70;;;;;;;;;;5073053;28;20535;-62
2022/09/15 02:00:44;;;;;;;5.73;3.77;;;;;;;;;;5073065;28;20534;-62
2022/09/15 02:03:17;;;;;;;8.63;4.00;;;;;;;;;;5072788;28;20450;-62
2022/09/15 02:05:47;;;;;;;4.53;3.37;;;;;;;;;;5072792;28;20530;-62
2022/09/15 02:08:24;;;;;;;4.33;3.93;;;;;;;;;;5072701;28;20453;-62
2022/09/15 02:10:58;;;;;;;6.40;3.67;;;;;;;;;;5072450;28;20450;-62
2022/09/15 02:13:28;;;;;;;6.80;3.80;;;;;;;;;;5072671;28;20447;-62
2022/09/15 02:15:57;;;;;;;4.30;3.57;;;;;;;;;;5072696;28;20451;-62
2022/09/15 02:18:33;;;;;;;7.50;4.77;;;;;;;;;;5072513;28;20540;-62
2022/09/15 02:21:06;;;;;;;6.37;4.00;;;;;;;;;;5072439;28;20448;-62
2022/09/15 02:23:36;;;;;;;12.13;4.00;;;;;;;;;;5072420;28;20538;-62
2022/09/15 02:26:05;;;;;;;5.53;4.00;;;;;;;;;;5072556;28;20455;-62
2022/09/15 02:28:34;;;;;;;5.30;4.00;;;;;;;;;;5072543;28;20882;-62
2022/09/15 02:31:03;;;;;;;6.10;3.73;;;;;;;;;;5072456;28;20542;-62
2022/09/15 02:33:33;;;;;;;6.67;3.63;;;;;;;;;;5072264;28;20784;-62
2022/09/15 02:36:00;;;;;;;5.73;4.07;;;;;;;;;;5072315;28;20451;-62
2022/09/15 02:38:29;;;;;;;6.83;4.20;;;;;;;;;;5072433;28;20542;-62
2022/09/15 02:40:57;;;;;;;6.80;4.10;;;;;;;;;;5072330;28;20543;-62
2022/09/15 02:43:24;;;;;;;8.80;4.20;;;;;;;;;;5072342;28;20834;-62
2022/09/15 02:45:50;;;;;;;8.27;3.73;;;;;;;;;;5072210;28;20539;-62
2022/09/15 02:48:17;;;;;;;12.53;4.70;;;;;;;;;;5072105;28;20510;-62
2022/09/15 02:50:46;;;;;;;9.00;4.77;;;;;;;;;;5072316;28;20538;-62
2022/09/15 02:53:13;;;;;;;7.30;4.27;;;;;;;;;;5072483;28;20983;-62
2022/09/15 02:55:40;;;;;;;9.03;5.90;;;;;;;;;;5072116;28;20526;-62
2022/09/15 02:58:07;;;;;;;5.23;4.13;;;;;;;;;;5072959;28;20513;-62
2022/09/15 03:00:37;;;;;;;6.00;4.30;;;;;;;;;;5075699;28;20542;-62
2022/09/15 03:03:04;;;;;;;4.83;3.77;;;;;;;;;;5075584;28;20444;-62
2022/09/15 03:05:31;;;;;;;5.63;4.60;;;;;;;;;;5075896;28;20455;-62
2022/09/15 03:07:59;;;;;;;8.00;4.60;;;;;;;;;;5075539;28;20439;-62
2022/09/15 03:10:26;;;;;;;3.60;3.20;;;;;;;;;;5075530;28;20492;-62
2022/09/15 03:12:54;;;;;;;5.03;4.63;;;;;;;;;;5075555;28;20448;-62
2022/09/15 03:15:22;;;;;;;5.73;4.30;;;;;;;;;;5075274;28;20475;-62
2022/09/15 03:17:49;;;;;;;6.80;4.43;;;;;;;;;;5075493;28;20538;-62
2022/09/15 03:20:17;;;;;;;5.93;4.33;;;;;;;;;;5075518;28;20447;-62
2022/09/15 03:22:44;;;;;;;7.97;4.50;;;;;;;;;;5075442;28;20451;-62
2022/09/15 03:25:13;;;;;;;7.73;4.47;;;;;;;;;;5075318;28;20538;-62
2022/09/15 03:27:41;;;;;;;5.97;4.00;;;;;;;;;;5075253;28;20447;-62
2022/09/15 03:30:09;;;;;;;11.97;4.70;;;;;;;;;;5075056;28;20804;-62
2022/09/15 03:32:36;;;;;;;6.90;5.00;;;;;;;;;;5075275;28;20450;-62
2022/09/15 03:35:03;;;;;;;5.50;4.30;;;;;;;;;;5075178;28;20518;-62
2022/09/15 03:37:30;;;;;;;7.90;5.43;;;;;;;;;;5075507;28;20483;-62
2022/09/15 03:39:57;;;;;;;5.77;4.97;;;;;;;;;;5074874;28;20452;-62
2022/09/15 03:42:26;;;;;;;8.33;4.73;;;;;;;;;;5074855;28;20479;-61
2022/09/15 03:44:52;;;;;;;6.60;4.57;;;;;;;;;;5074952;28;20444;-62
2022/09/15 03:47:19;;;;;;;8.20;4.47;;;;;;;;;;5074752;28;20566;-61
2022/09/15 03:49:47;;;;;;;5.57;4.67;;;;;;;;;;5074855;28;20440;-62
2022/09/15 03:52:14;;;;;;;4.40;4.00;;;;;;;;;;5074768;28;20453;-62
2022/09/15 03:54:41;;;;;;;8.80;4.93;;;;;;;;;;5074675;28;20834;-62
2022/09/15 03:57:08;;;;;;;8.10;4.73;;;;;;;;;;5074509;28;20447;-61
2022/09/15 03:59:36;;;;;;;9.70;8.10;;;;;;;;;;5074720;28;20543;-62
2022/09/15 04:02:03;;;;;;;6.77;4.77;;;;;;;;;;5074519;28;20542;-61
2022/09/15 04:04:30;;;;;;;5.70;5.07;;;;;;;;;;5074563;28;20452;-62
2022/09/15 04:06:57;;;;;;;6.97;4.33;;;;;;;;;;5074317;28;20451;-62
2022/09/15 04:09:25;;;;;;;7.73;4.83;;;;;;;;;;5074258;28;20453;-62
2022/09/15 04:11:52;;;;;;;5.10;4.33;;;;;;;;;;5074117;28;20456;-61
2022/09/15 04:14:19;;;;;;;5.00;3.87;;;;;;;;;;5074143;28;20951;-62
2022/09/15 04:16:47;;;;;;;7.87;4.70;;;;;;;;;;5074436;28;21010;-62
2022/09/15 04:19:14;;;;;;;7.43;4.90;;;;;;;;;;5074344;28;20451;-62
2022/09/15 04:21:41;;;;;;;7.73;4.90;;;;;;;;;;5073948;28;21013;-62
2022/09/15 04:24:08;;;;;;;8.90;4.60;;;;;;;;;;5074038;28;20534;-61
2022/09/15 04:26:36;;;;;;;5.53;4.87;;;;;;;;;;5074220;28;20534;-62
2022/09/15 04:29:03;;;;;;;10.43;5.00;;;;;;;;;;5074097;28;20878;-61
2022/09/15 04:31:30;;;;;;;7.43;4.13;;;;;;;;;;5073975;28;20546;-61
2022/09/15 04:33:59;;;;;;;10.83;4.90;;;;;;;;;;5073878;28;20443;-62
2022/09/15 04:36:27;;;;;;;8.37;5.20;;;;;;;;;;5073722;28;20494;-62
2022/09/15 04:38:54;;;;;;;6.73;4.33;;;;;;;;;;5073503;28;20458;-62
2022/09/15 04:41:21;;;;;;;5.83;5.23;;;;;;;;;;5073781;28;20538;-62
2022/09/15 04:43:48;;;;;;;8.80;5.77;;;;;;;;;;5073593;28;20922;-61
2022/09/15 04:46:17;;;;;;;6.73;5.23;;;;;;;;;;5073745;28;20857;-62
2022/09/15 04:48:45;;;;;;;6.73;4.83;;;;;;;;;;5073406;28;20460;-61
2022/09/15 04:51:14;;;;;;;7.23;5.00;;;;;;;;;;5073152;28;20454;-62
2022/09/15 04:53:41;;;;;;;6.77;4.80;;;;;;;;;;5073452;28;20450;-62
2022/09/15 04:56:10;;;;;;;5.40;4.90;;;;;;;;;;5073676;28;20483;-62
2022/09/15 04:58:37;;;;;;;6.50;4.27;;;;;;;;;;5073321;28;20538;-62
2022/09/15 05:01:07;;;;;;;5.87;5.30;;;;;;;;;;5073253;28;21005;-62
2022/09/15 05:03:36;;;;;;;5.63;4.50;;;;;;;;;;5073422;28;20551;-62
2022/09/15 05:06:03;;;;;;;8.87;4.50;;;;;;;;;;5073274;28;20534;-62
2022/09/15 05:08:31;;;;;;;7.10;4.90;;;;;;;;;;5073602;28;20451;-61
2022/09/15 05:10:59;;;;;;;5.63;5.10;;;;;;;;;;5073505;28;20972;-61
2022/09/15 05:13:26;;;;;;;7.33;4.43;;;;;;;;;;5073191;28;20938;-61
2022/09/15 05:15:53;;;;;;;8.20;5.30;;;;;;;;;;5073013;28;20585;-61
2022/09/15 05:18:20;;;;;;;8.53;4.97;;;;;;;;;;5072900;28;20451;-61
2022/09/15 05:20:47;;;;;;;8.30;4.37;;;;;;;;;;5072745;28;20478;-62
2022/09/15 05:23:14;;;;;;;7.57;5.07;;;;;;;;;;5073094;28;20447;-61
2022/09/15 05:25:43;;;;;;;11.47;5.53;;;;;;;;;;5073061;28;20454;-61
2022/09/15 05:28:09;;;;;;;9.67;5.30;;;;;;;;;;5072871;28;20932;-61
2022/09/15 05:30:39;;;;;;;7.53;4.73;;;;;;;;;;5072841;28;20443;-61
2022/09/15 05:33:06;;;;;;;6.00;4.70;;;;;;;;;;5072665;28;20443;-61
2022/09/15 05:35:33;;;;;;;9.63;4.70;;;;;;;;;;5072723;28;20479;-61
2022/09/15 05:38:00;;;;;;;7.70;5.43;;;;;;;;;;5072853;28;20448;-61
2022/09/15 05:40:27;;;;;;;9.93;5.53;;;;;;;;;;5072792;28;20466;-61
2022/09/15 05:42:56;;;;;;;5.47;4.60;;;;;;;;;;5072765;28;20521;-61
2022/09/15 05:45:23;;;;;;;8.20;5.77;;;;;;;;;;5072472;28;20811;-61
2022/09/15 05:47:50;;;;;;;5.40;4.10;;;;;;;;;;5072450;28;20558;-61
2022/09/15 05:50:17;;;;;;;7.60;5.10;;;;;;;;;;5072488;28;20538;-61
2022/09/15 05:52:44;;;;;;;7.80;4.60;;;;;;;;;;5072562;28;20473;-61
2022/09/15 05:55:11;;;;;;;6.30;5.40;;;;;;;;;;5072507;28;20486;-61
2022/09/15 05:57:38;;;;;;;10.93;7.30;;;;;;;;;;5072450;28;20448;-61
2022/09/15 06:00:07;;;;;;;5.47;4.50;;;;;;;;;;5072388;28;20452;-61
2022/09/15 06:02:34;;;;;;;12.80;4.93;;;;;;;;;;5072635;28;20541;-61
2022/09/15 06:05:01;;;;;;;9.77;4.20;;;;;;;;;;5072463;28;20451;-61
2022/09/15 06:07:28;;;;;;;6.30;4.70;;;;;;;;;;5072558;28;20450;-61
2022/09/15 06:09:55;;;;;;;7.57;4.50;;;;;;;;;;5072398;28;20453;-61
2022/09/15 06:12:22;;;;;;;7.43;4.10;;;;;;;;;;5072413;28;20448;-61
2022/09/15 06:14:51;;;;;;;5.43;4.33;;;;;;;;;;5072530;28;20456;-61
2022/09/15 06:17:21;;;;;;;11.13;5.10;;;;;;;;;;5072545;28;20479;-61
2022/09/15 06:19:47;;;;;;;10.23;4.77;;;;;;;;;;5072528;28;20578;-61
2022/09/15 06:22:14;;;;;;;8.87;4.30;;;;;;;;;;5072222;28;20454;-61
2022/09/15 06:24:41;;;;;;;6.67;4.03;;;;;;;;;;5072284;28;20546;-61
2022/09/15 06:27:08;;;;;;;10.83;3.77;;;;;;;;;;5072219;28;20452;-61
2022/09/15 06:29:35;;;;;;;5.50;3.03;;;;;;;;;;5072397;28;20486;-61
2022/09/15 06:32:03;;;;;;;10.83;3.73;;;;;;;;;;5072281;28;20455;-61
2022/09/15 06:34:32;;;;;;;6.93;3.53;;;;;;;;;;5075365;28;20443;-61
2022/09/15 06:36:59;;;;;;;7.10;4.10;;;;;;;;;;5075976;28;20487;-61
2022/09/15 06:39:26;;;;;;;7.50;3.63;;;;;;;;;;5075924;28;20448;-62
2022/09/15 06:41:53;;;;;;;7.97;3.70;;;;;;;;;;5075649;28;20544;-61
2022/09/15 06:44:20;;;;;;;10.53;4.10;;;;;;;;;;5075942;28;20443;-61
2022/09/15 06:46:48;;;;;;;6.70;3.63;;;;;;;;;;5075824;28;20449;-61
2022/09/15 06:49:15;;;;;;;5.20;3.37;;;;;;;;;;5075399;28;20505;-61
2022/09/15 06:51:43;;;;;;;4.17;3.00;;;;;;;;;;5075626;28;20486;-61
2022/09/15 06:54:10;;;;;;;5.83;3.70;;;;;;;;;;5075600;28;20881;-61
2022/09/15 06:56:37;;;;;;;4.70;3.20;;;;;;;;;;5075685;28;20557;-61
2022/09/15 06:59:04;;;;;;;3.93;3.60;;;;;;;;;;5075561;28;20443;-61
2022/09/15 07:01:32;;;;;;;3.70;3.10;;;;;;;;;;5075560;28;20542;-61
2022/09/15 07:04:00;;;;;;;6.63;3.67;;;;;;;;;;5075425;28;20457;-61
2022/09/15 07:06:28;;;;;;;7.43;3.27;;;;;;;;;;5075365;28;20466;-61
2022/09/15 07:08:57;;;;;;;4.83;3.50;;;;;;;;;;5075325;28;20799;-61
2022/09/15 07:11:24;;;;;;;6.40;2.73;;;;;;;;;;5075506;28;20447;-61
2022/09/15 07:13:51;;;;;;;3.30;2.83;;;;;;;;;;5075437;28;20450;-61
2022/09/15 07:16:19;;;;;;;4.13;2.90;;;;;;;;;;5075258;28;20570;-61
2022/09/15 07:18:46;;;;;;;5.33;3.30;;;;;;;;;;5074868;28;20814;-61
2022/09/15 07:21:14;;;;;;;5.23;2.83;;;;;;;;;;5071384;28;20454;-61
2022/09/15 07:23:41;;;;;;;7.37;3.97;;;;;;;;;;5073039;28;20539;-61
2022/09/15 07:26:10;;;;;;;5.10;2.80;;;;;;;;;;5074801;28;20448;-61
2022/09/15 07:28:38;;;;;;;6.13;3.17;;;;;;;;;;5075175;28;20542;-61
2022/09/15 07:31:05;;;;;;;3.43;2.60;;;;;;;;;;5075075;28;21042;-61
2022/09/15 07:33:33;;;;;;;4.67;2.57;;;;;;;;;;5074862;28;20447;-61
2022/09/15 07:36:01;;;;;;;8.07;2.93;;;;;;;;;;5074468;28;20514;-61
2022/09/15 07:38:28;;;;;;;4.53;2.33;;;;;;;;;;5074206;28;20475;-62
2022/09/15 07:40:55;;;;;;;6.77;2.90;;;;;;;;;;5074434;28;20497;-61
2022/09/15 07:43:23;;;;;;;4.27;2.73;;;;;;;;;;5074242;28;20483;-61
2022/09/15 07:45:50;;;;;;;4.07;2.70;;;;;;;;;;5074224;28;20439;-61
2022/09/15 07:48:17;;;;;;;5.73;2.50;;;;;;;;;;5074299;28;20464;-61
2022/09/15 07:50:46;;;;;;;2.90;1.90;;;;;;;;;;5074320;28;20510;-61
2022/09/15 07:53:13;;;;;;;5.37;2.00;;;;;;;;;;5075224;28;20476;-58
2022/09/15 07:55:40;;;;;;;5.53;1.90;;;;;;;;;;5072826;28;20478;-59
2022/09/15 07:58:07;;;;;;;3.00;1.80;;;;;;;;;;5084555;28;20564;-59
2022/09/15 08:00:37;;;;;;;2.27;2.07;;;;;;;;;;5087150;28;20447;-53
2022/09/15 08:03:05;;;;;;;6.27;2.20;;;;;;;;;;5074191;28;20447;-59
2022/09/15 08:05:32;;;;;;;6.77;1.73;;;;;;;;;;5072543;28;20463;-60
2022/09/15 08:07:58;;;;;;;2.93;1.60;;;;;;;;;;5072383;28;20509;-59
2022/09/15 08:10:25;;;;;;;2.80;1.90;;;;;;;;;;5070682;28;20485;-59
2022/09/15 08:12:53;;;;;;;2.10;1.70;;;;;;;;;;5073643;28;20573;-59
2022/09/15 08:15:20;;;;;;;3.53;1.80;;;;;;;;;;5073343;28;20474;-59
2022/09/15 08:17:48;;;;;;;1.97;1.67;;;;;;;;;;5070936;28;20447;-57
2022/09/15 08:20:15;;;;;;;2.70;1.53;;;;;;;;;;5070488;28;20447;-58
2022/09/15 08:22:44;;;;;;;3.30;1.57;;;;;;;;;;5072619;28;20450;-59
2022/09/15 08:25:11;;;;;;;3.60;1.80;;;;;;;;;;5070166;28;20460;-59
2022/09/15 08:27:38;;;;;;;3.20;1.77;;;;;;;;;;5070199;28;20977;-59
2022/09/15 08:30:06;;;;;;;3.00;1.70;;;;;;;;;;5072098;28;20458;-59
2022/09/15 08:32:33;;;;;;;2.90;1.40;;;;;;;;;;5074247;28;20465;-60
2022/09/15 08:35:02;;;;;;;1.70;1.60;;;;;;;;;;5073934;28;20555;-60
2022/09/15 08:37:29;;;;;;;3.63;1.80;;;;;;;;;;5073506;28;20941;-60
2022/09/15 08:39:55;;;;;;;3.97;1.70;;;;;;;;;;5072100;28;20459;-56
2022/09/15 08:42:25;;;;;;;6.07;2.00;;;;;;;;;;5069473;28;20458;-58
2022/09/15 08:44:55;;;;;;;2.40;1.70;;;;;;;;;;5073301;28;20846;-59
2022/09/15 08:47:24;;;;;;;3.40;1.50;;;;;;;;;;5069944;28;20824;-59
2022/09/15 08:49:55;;;;;;;3.53;1.50;;;;;;;;;;5072444;28;20439;-59
2022/09/15 08:52:26;;;;;;;3.10;1.93;;;;;;;;;;5072441;28;20447;-60
2022/09/15 08:54:55;;;;;;;4.87;1.80;;;;;;;;;;5071885;28;20455;-61
2022/09/15 08:57:24;;;;;;;5.20;1.53;;;;;;;;;;5064214;28;21148;-60
2022/09/15 08:59:53;;;;;;;3.43;1.70;;;;;;;;;;5053425;28;20455;-59
2022/09/15 09:02:38;;;;;;;3.77;1.60;;;;;;;;;;5061530;28;20858;-59
2022/09/15 09:05:09;;;;;;;2.40;1.47;;;;;;;;;;5057175;28;20459;-60
2022/09/15 09:07:49;;;;;;;5.63;1.40;;;;;;;;;;5053370;28;20820;-60
2022/09/15 09:10:17;;;;;;;1.73;1.10;;;;;;;;;;5061496;28;20468;-58
2022/09/15 09:12:52;;;;;;;3.53;1.67;;;;;;;;;;5062408;28;20534;-59
2022/09/15 09:15:27;;;;;;;4.70;1.50;;;;;;;;;;5064529;28;20976;-60
2022/09/15 09:18:09;;;;;;;4.33;1.53;;;;;;;;;;5068523;28;20486;-59
2022/09/15 09:20:43;;;;;;;6.60;2.00;;;;;;;;;;5069799;28;20975;-59
2022/09/15 09:23:14;;;;;;;7.70;2.00;;;;;;;;;;5072890;28;20453;-59
2022/09/15 09:25:41;;;;;;;3.53;1.40;;;;;;;;;;5067373;28;21030;-60
2022/09/15 09:28:12;;;;;;;3.30;1.63;;;;;;;;;;5071499;28;20546;-58
2022/09/15 09:30:39;;;;;;;2.10;1.40;;;;;;;;;;5069341;28;20457;-58
2022/09/15 09:33:13;;;;;;;4.27;2.00;;;;;;;;;;5052946;28;20491;-58
2022/09/15 09:35:43;;;;;;;4.07;1.63;;;;;;;;;;5062552;28;20455;-58
2022/09/15 09:38:10;;;;;;;4.70;1.50;;;;;;;;;;5072021;28;20456;-62
2022/09/15 09:40:39;;;;;;;3.67;1.53;;;;;;;;;;5069976;28;20439;-59
2022/09/15 09:43:07;;;;;;;1.57;1.47;;;;;;;;;;5068953;28;20849;-59
2022/09/15 09:45:34;;;;;;;2.30;1.30;;;;;;;;;;5071749;28;20934;-59
2022/09/15 09:48:02;;;;;;;3.17;2.00;;;;;;;;;;5071998;28;20478;-60
2022/09/15 09:50:34;;;;;;;6.10;1.63;;;;;;;;;;5072083;28;20547;-59
2022/09/15 09:53:15;;;;;;;3.57;1.83;;;;;;;;;;5069558;28;20459;-59
2022/09/15 09:55:44;;;;;;;2.17;1.40;;;;;;;;;;5064161;28;20517;-59
2022/09/15 09:58:13;;;;;;;3.43;1.00;;;;;;;;;;5072336;28;20479;-59
2022/09/15 10:00:40;;;;;;;3.13;1.60;;;;;;;;;;5071347;28;20461;-58
2022/09/15 10:03:13;;;;;;;3.20;1.63;;;;;;;;;;5068977;28;20885;-59
2022/09/15 10:05:40;;;;;;;2.10;1.00;;;;;;;;;;5071918;28;20474;-60
2022/09/15 10:08:07;;;;;;;6.87;1.97;;;;;;;;;;5074037;28;20988;-60
2022/09/15 10:10:34;;;;;;;5.23;1.30;;;;;;;;;;5076615;28;20535;-59
2022/09/15 10:13:04;;;;;;;1.90;1.30;;;;;;;;;;5072351;28;20458;-59
2022/09/15 10:15:32;;;;;;;4.33;1.40;;;;;;;;;;5068890;28;20982;-59
2022/09/15 10:18:00;;;;;;;1.47;1.00;;;;;;;;;;5075998;28;20479;-58
2022/09/15 10:20:31;;;;;;;2.83;1.30;;;;;;;;;;5074505;28;20458;-58
2022/09/15 10:23:05;;;;;;;1.60;1.10;;;;;;;;;;5074316;28;20868;-58
2022/09/15 10:25:33;;;;;;;5.33;1.43;;;;;;;;;;5074364;28;21003;-59
2022/09/15 10:28:12;;;;;;;3.13;1.40;;;;;;;;;;5074635;28;20450;-58
2022/09/15 10:30:39;;;;;;;1.93;1.20;;;;;;;;;;5074626;28;20503;-59
2022/09/15 10:33:20;;;;;;;3.43;1.30;;;;;;;;;;5071077;28;20451;-60
2022/09/15 10:35:47;;;;;;;5.80;1.60;;;;;;;;;;5075660;28;20435;-61
2022/09/15 10:38:15;;;;;;;4.53;1.50;;;;;;;;;;5074662;28;20482;-59
2022/09/15 10:40:44;;;;;;;1.30;1.20;;;;;;;;;;5076022;28;20483;-60
2022/09/15 10:43:19;;;;;;;5.60;1.47;;;;;;;;;;5056672;28;20851;-52
2022/09/15 10:45:48;;;;;;;4.40;1.33;;;;;;;;;;5055588;28;20530;-57
2022/09/15 10:48:23;;;;;;;1.40;1.20;;;;;;;;;;5066868;28;20505;-57
2022/09/15 10:50:54;;;;;;;4.30;1.50;;;;;;;;;;5065472;28;20451;-57
2022/09/15 10:53:28;;;;;;;2.03;1.00;;;;;;;;;;5064652;28;20516;-60
2022/09/15 10:55:59;;;;;;;1.87;1.30;;;;;;;;;;5074082;28;20557;-60
2022/09/15 10:58:48;;;;;;;2.50;1.10;;;;;;;;;;5075541;28;20808;-60
2022/09/15 11:01:28;;;;;;;4.43;1.43;;;;;;;;;;5075287;28;20957;-60
2022/09/15 11:04:08;;;;;;;2.93;1.10;;;;;;;;;;5071733;28;20512;-59
2022/09/15 11:06:40;;;;;;;4.30;1.33;;;;;;;;;;5073230;28;20534;-60
2022/09/15 11:09:20;;;;;;;2.07;1.30;;;;;;;;;;5075268;28;20532;-60
2022/09/15 11:11:53;;;;;;;5.40;1.87;;;;;;;;;;5073818;28;20451;-60
2022/09/15 11:14:28;;;;;;;4.00;1.27;;;;;;;;;;5075197;28;20497;-59
2022/09/15 11:17:00;;;;;;;1.60;0.90;;;;;;;;;;5070786;28;20471;-58
2022/09/15 11:19:38;;;;;;;1.60;1.23;;;;;;;;;;5071139;28;20468;-59
2022/09/15 11:22:08;;;;;;;1.63;0.93;;;;;;;;;;5055179;28;20518;-59
2022/09/15 11:24:40;;;;;;;1.90;1.10;;;;;;;;;;5071891;28;20895;-58
2022/09/15 11:27:12;;;;;;;1.87;1.00;;;;;;;;;;5069271;28;20559;-59
2022/09/15 11:29:43;;;;;;;1.50;0.90;;;;;;;;;;5069785;28;20509;-58
2022/09/15 11:32:15;;;;;;;2.13;1.00;;;;;;;;;;5055034;28;20543;-60
2022/09/15 11:34:47;;;;;;;1.47;0.83;;;;;;;;;;5063116;28;20447;-54
2022/09/15 11:37:16;;;;;;;3.43;0.90;;;;;;;;;;5072679;28;20471;-59
2022/09/15 11:39:46;;;;;;;1.40;0.90;;;;;;;;;;5070406;28;20538;-58
2022/09/15 11:42:16;;;;;;;2.47;0.93;;;;;;;;;;5073580;28;20451;-58
2022/09/15 11:44:46;;;;;;;3.27;0.90;;;;;;;;;;5072481;28;20448;-59
2022/09/15 11:47:20;;;;;;;1.90;0.97;;;;;;;;;;5066922;28;20464;-55
2022/09/15 11:49:50;;;;;;;2.53;1.13;;;;;;;;;;5069932;28;20952;-55
2022/09/15 11:52:32;;;;;;;1.50;1.10;;;;;;;;;;5074475;28;20457;-51
2022/09/15 11:55:01;;;;;;;1.77;1.00;;;;;;;;;;5074603;28;20454;-57
2022/09/15 11:57:31;;;;;;;2.00;1.03;;;;;;;;;;5074525;28;20487;-52
2022/09/15 12:00:03;;;;;;;6.00;1.03;;;;;;;;;;5074180;28;20490;-53
2022/09/15 12:02:32;;;;;;;1.67;0.70;;;;;;;;;;5074471;28;20458;-54
2022/09/15 12:05:04;;;;;;;3.73;1.30;;;;;;;;;;5074043;28;20454;-50
2022/09/15 12:07:33;;;;;;;3.30;1.00;;;;;;;;;;5074027;28;20454;-56
2022/09/15 12:10:05;;;;;;;1.93;0.90;;;;;;;;;;5073871;28;20538;-55
2022/09/15 12:12:34;;;;;;;2.70;1.00;;;;;;;;;;5074300;28;20542;-54
2022/09/15 12:15:02;;;;;;;4.50;0.90;;;;;;;;;;5071925;28;20448;-54
2022/09/15 12:17:31;;;;;;;1.50;0.90;;;;;;;;;;5073068;28;20479;-56
2022/09/15 12:20:00;;;;;;;1.80;1.00;;;;;;;;;;5073859;28;20447;-51
2022/09/15 12:22:32;;;;;;;1.87;1.10;;;;;;;;;;5074019;28;20876;-55
2022/09/15 12:25:01;;;;;;;3.27;1.17;;;;;;;;;;5072459;28;20453;-54
2022/09/15 12:27:28;;;;;;;2.53;0.90;;;;;;;;;;5073186;28;20534;-56
2022/09/15 12:29:56;;;;;;;1.80;1.00;;;;;;;;;;5073707;28;20451;-58
2022/09/15 12:32:27;;;;;;;4.17;1.03;;;;;;;;;;5073242;28;20448;-56
2022/09/15 12:34:59;;;;;;;1.93;0.83;;;;;;;;;;5073900;28;20467;-53
2022/09/15 12:37:27;;;;;;;1.87;0.87;;;;;;;;;;5073605;28;20477;-56
2022/09/15 12:39:54;;;;;;;3.83;1.00;;;;;;;;;;5073492;28;20447;-56
2022/09/15 12:42:22;;;;;;;3.23;1.00;;;;;;;;;;5073726;28;20454;-54
2022/09/15 12:44:51;;;;;;;2.13;0.83;;;;;;;;;;5073307;28;20961;-53
2022/09/15 12:47:20;;;;;;;1.20;0.70;;;;;;;;;;5073365;28;20485;-54
2022/09/15 12:49:49;;;;;;;3.50;1.17;;;;;;;;;;5073547;28;20449;-53
2022/09/15 12:52:17;;;;;;;2.47;1.10;;;;;;;;;;5073578;28;20452;-53
2022/09/15 12:54:45;;;;;;;2.10;1.00;;;;;;;;;;5073244;28;20451;-52
2022/09/15 12:57:19;;;;;;;2.57;1.03;;;;;;;;;;5073312;28;20561;-50
2022/09/15 12:59:46;;;;;;;9.43;1.37;;;;;;;;;;5073478;28;20452;-54
2022/09/15 13:02:28;;;;;;;1.50;1.10;;;;;;;;;;5073085;28;20815;-50
2022/09/15 13:04:57;;;;;;;3.37;1.00;;;;;;;;;;5073001;28;20454;-54
2022/09/15 13:07:35;;;;;;;1.73;1.37;;;;;;;;;;5073156;28;20451;-51
2022/09/15 13:10:17;;;;;;;3.43;1.10;;;;;;;;;;5073060;28;20958;-53
2022/09/15 13:12:48;;;;;;;3.77;1.13;;;;;;;;;;5073130;28;20561;-55
2022/09/15 13:15:16;;;;;;;3.47;1.20;;;;;;;;;;5073007;28;20538;-58
2022/09/15 13:17:44;;;;;;;2.40;0.80;;;;;;;;;;5072870;28;20493;-52
2022/09/15 13:20:16;;;;;;;3.07;1.00;;;;;;;;;;5073052;28;20803;-51
2022/09/15 13:22:45;;;;;;;2.27;1.30;;;;;;;;;;5073076;28;20478;-54
2022/09/15 13:25:15;;;;;;;2.73;1.20;;;;;;;;;;5072885;28;20811;-52
2022/09/15 13:27:43;;;;;;;1.93;1.03;;;;;;;;;;5072917;28;20447;-51
2022/09/15 13:30:19;;;;;;;2.07;1.00;;;;;;;;;;5072749;28;20454;-51
2022/09/15 13:32:48;;;;;;;4.03;1.50;;;;;;;;;;5073147;28;20649;-50
2022/09/15 13:35:39;;;;;;;3.13;1.13;;;;;;;;;;5072830;28;20452;-52
2022/09/15 13:38:23;;;;;;;6.37;1.57;;;;;;;;;;5057567;28;20475;-51
2022/09/15 13:41:08;;;;;;;1.93;0.97;;;;;;;;;;5072886;28;20482;-50
2022/09/15 13:43:46;;;;;;;4.87;1.10;;;;;;;;;;5062161;28;20456;-50
2022/09/15 13:46:18;;;;;;;3.43;1.60;;;;;;;;;;5072629;28;20458;-50
2022/09/15 13:49:00;;;;;;;2.17;1.00;;;;;;;;;;5072310;28;20475;-54
2022/09/15 13:51:28;;;;;;;2.83;1.03;;;;;;;;;;5072693;28;20534;-50
2022/09/15 13:53:58;;;;;;;1.80;1.00;;;;;;;;;;5072654;28;20443;-54
2022/09/15 13:56:27;;;;;;;2.63;1.10;;;;;;;;;;5072673;28;20792;-55
2022/09/15 13:58:56;;;;;;;8.23;1.37;;;;;;;;;;5072478;28;20487;-54
2022/09/15 14:01:24;;;;;;;1.63;0.77;;;;;;;;;;5072504;28;20781;-51
2022/09/15 14:03:52;;;;;;;5.40;0.97;;;;;;;;;;5072685;28;20458;-54
2022/09/15 14:06:21;;;;;;;6.20;1.30;;;;;;;;;;5072613;28;20451;-51
2022/09/15 14:08:50;;;;;;;3.30;1.30;;;;;;;;;;5072542;28;20447;-51
2022/09/15 14:11:26;;;;;;;4.50;1.10;;;;;;;;;;5072445;28;20955;-49
2022/09/15 14:13:53;;;;;;;2.20;1.10;;;;;;;;;;5072408;28;20484;-50
2022/09/15 14:16:25;;;;;;;1.73;0.80;;;;;;;;;;5072556;28;20879;-54
2022/09/15 14:18:52;;;;;;;2.20;1.03;;;;;;;;;;5072528;28;20570;-51
2022/09/15 14:21:20;;;;;;;2.70;1.00;;;;;;;;;;5072429;28;20494;-50
2022/09/15 14:23:48;;;;;;;3.27;0.93;;;;;;;;;;5072444;28;20539;-50
2022/09/15 14:26:16;;;;;;;2.50;0.93;;;;;;;;;;5072088;28;20451;-52
2022/09/15 14:28:50;;;;;;;6.10;1.00;;;;;;;;;;5072609;28;20807;-53
2022/09/15 14:31:17;;;;;;;1.90;0.80;;;;;;;;;;5072425;28;20538;-52
2022/09/15 14:33:46;;;;;;;2.93;1.10;;;;;;;;;;5072412;28;20550;-51
2022/09/15 14:36:14;;;;;;;4.20;1.20;;;;;;;;;;5072387;28;20463;-51
2022/09/15 14:38:41;;;;;;;2.30;1.00;;;;;;;;;;5072237;28;20582;-55
2022/09/15 14:41:18;;;;;;;3.57;1.00;;;;;;;;;;5072259;28;20538;-52
2022/09/15 14:43:45;;;;;;;1.83;1.00;;;;;;;;;;5072368;28;20447;-55
2022/09/15 14:46:16;;;;;;;1.27;0.80;;;;;;;;;;5072257;28;20530;-52
2022/09/15 14:48:43;;;;;;;1.30;0.70;;;;;;;;;;5072118;28;20610;-53
2022/09/15 14:51:14;;;;;;;1.77;0.80;;;;;;;;;;5072061;28;20681;-51
2022/09/15 14:53:42;;;;;;;2.87;1.13;;;;;;;;;;5072462;28;20447;-51
2022/09/15 14:56:11;;;;;;;2.30;0.93;;;;;;;;;;5075813;28;20447;-55